createdAt,value
2022-10-31T00:01:03.666Z,18.80
2022-10-31T00:03:07.050Z,18.80
2022-10-31T00:05:10.981Z,18.80
2022-10-31T00:07:14.748Z,18.80
2022-10-31T00:09:18.112Z,18.70
2022-10-31T00:11:41.830Z,18.40
2022-10-31T00:13:45.125Z,18.50
2022-10-31T00:15:49.980Z,18.40
2022-10-31T00:17:59.382Z,18.30
2022-10-31T00:20:02.805Z,18.20
2022-10-31T00:22:06.006Z,18.20
2022-10-31T00:24:09.843Z,18.20
2022-10-31T00:26:13.594Z,18.20
2022-10-31T00:28:16.894Z,18.30
2022-10-31T00:30:20.311Z,18.30
2022-10-31T00:32:25.080Z,18.20
2022-10-31T00:34:28.682Z,18.10
2022-10-31T00:36:32.467Z,17.90
2022-10-31T00:38:36.042Z,17.90
2022-10-31T00:40:39.470Z,17.90
2022-10-31T00:42:43.844Z,17.90
2022-10-31T00:44:47.106Z,18.00
2022-10-31T00:46:50.639Z,18.00
2022-10-31T00:48:56.031Z,18.00
2022-10-31T00:50:59.810Z,18.10
2022-10-31T00:53:05.748Z,18.10
2022-10-31T00:55:09.644Z,18.00
2022-10-31T00:57:13.091Z,18.00
2022-10-31T00:59:16.509Z,17.90
2022-10-31T01:01:20.275Z,17.90
2022-10-31T01:03:25.000Z,17.80
2022-10-31T01:05:35.668Z,17.80
2022-10-31T01:07:40.684Z,17.70
2022-10-31T01:09:44.247Z,17.70
2022-10-31T01:11:47.970Z,17.60
2022-10-31T01:13:54.258Z,17.50
2022-10-31T01:15:58.169Z,17.40
2022-10-31T01:18:01.877Z,17.10
2022-10-31T01:20:07.828Z,17.00
2022-10-31T01:22:12.432Z,17.00
2022-10-31T01:24:15.607Z,17.00
2022-10-31T01:26:20.755Z,17.10
2022-10-31T01:30:27.448Z,17.20
2022-10-31T01:32:30.957Z,17.20
2022-10-31T01:34:34.325Z,17.20
2022-10-31T01:36:39.780Z,17.30
2022-10-31T01:38:45.026Z,17.20
2022-10-31T01:40:48.664Z,17.20
2022-10-31T01:42:52.137Z,17.20
2022-10-31T01:45:06.305Z,17.20
2022-10-31T01:47:15.881Z,17.10
2022-10-31T01:49:36.629Z,17.10
2022-10-31T01:51:44.282Z,17.00
2022-10-31T01:53:50.170Z,17.00
2022-10-31T01:55:53.862Z,16.90
2022-10-31T01:58:02.533Z,16.80
2022-10-31T02:00:10.201Z,16.80
2022-10-31T02:02:15.315Z,16.80
2022-10-31T02:04:19.735Z,16.70
2022-10-31T02:06:33.438Z,16.70
2022-10-31T02:08:38.404Z,16.70
2022-10-31T02:10:44.614Z,16.50
2022-10-31T02:12:49.810Z,16.50
2022-10-31T02:14:53.728Z,16.50
2022-10-31T02:16:57.857Z,16.50
2022-10-31T02:19:01.322Z,16.50
2022-10-31T02:21:11.369Z,16.50
2022-10-31T02:23:47.875Z,16.50
2022-10-31T02:26:17.725Z,16.50
2022-10-31T02:28:41.123Z,16.30
2022-10-31T02:31:03.970Z,16.30
2022-10-31T02:33:22.613Z,16.30
2022-10-31T02:35:43.081Z,16.30
2022-10-31T02:37:53.178Z,16.20
2022-10-31T02:40:03.536Z,16.10
2022-10-31T02:42:11.181Z,16.10
2022-10-31T02:44:21.895Z,16.10
2022-10-31T02:46:34.562Z,16.00
2022-10-31T02:48:41.116Z,15.60
2022-10-31T02:50:49.810Z,15.80
2022-10-31T02:52:53.641Z,15.80
2022-10-31T02:54:56.702Z,15.90
2022-10-31T02:57:05.325Z,15.80
2022-10-31T02:59:08.246Z,15.90
2022-10-31T03:01:35.247Z,15.90
2022-10-31T03:03:50.375Z,15.90
2022-10-31T03:06:02.516Z,15.80
2022-10-31T03:08:10.204Z,15.80
2022-10-31T03:10:19.339Z,15.80
2022-10-31T03:12:30.559Z,15.80
2022-10-31T03:14:40.185Z,15.80
2022-10-31T03:16:49.088Z,15.80
2022-10-31T03:18:59.980Z,15.80
2022-10-31T03:21:08.038Z,15.80
2022-10-31T03:23:15.620Z,15.80
2022-10-31T03:25:19.595Z,15.70
2022-10-31T03:27:26.011Z,15.70
2022-10-31T03:29:33.307Z,15.60
2022-10-31T03:31:40.892Z,15.60
2022-10-31T03:33:46.386Z,15.60
2022-10-31T03:35:55.429Z,15.50
2022-10-31T03:38:04.187Z,15.50
2022-10-31T03:40:12.062Z,15.40
2022-10-31T03:42:17.915Z,15.40
2022-10-31T03:44:24.161Z,15.40
2022-10-31T03:46:27.612Z,15.40
2022-10-31T03:48:30.704Z,15.30
2022-10-31T03:50:42.106Z,15.30
2022-10-31T03:52:50.642Z,15.30
2022-10-31T03:54:58.731Z,15.30
2022-10-31T03:57:07.337Z,15.30
2022-10-31T03:59:15.272Z,15.30
2022-10-31T04:01:20.298Z,15.10
2022-10-31T04:03:27.335Z,15.10
2022-10-31T04:05:31.906Z,15.10
2022-10-31T04:07:40.020Z,15.20
2022-10-31T04:09:48.156Z,15.10
2022-10-31T04:11:54.976Z,15.10
2022-10-31T04:14:00.290Z,14.90
2022-10-31T04:16:03.497Z,14.80
2022-10-31T04:18:07.752Z,14.90
2022-10-31T04:20:11.326Z,14.90
2022-10-31T04:22:14.501Z,15.00
2022-10-31T04:24:17.385Z,15.00
2022-10-31T04:26:21.726Z,14.90
2022-10-31T04:28:24.937Z,14.90
2022-10-31T04:30:27.908Z,14.90
2022-10-31T04:32:30.714Z,14.90
2022-10-31T04:34:33.566Z,14.90
2022-10-31T04:36:36.410Z,14.90
2022-10-31T04:38:39.353Z,14.90
2022-10-31T04:40:42.165Z,14.90
2022-10-31T04:42:46.858Z,14.90
2022-10-31T04:44:49.704Z,14.90
2022-10-31T04:46:52.513Z,14.90
2022-10-31T04:48:55.568Z,14.80
2022-10-31T04:51:01.648Z,14.70
2022-10-31T04:53:04.543Z,14.40
2022-10-31T04:55:08.264Z,14.40
2022-10-31T04:57:11.066Z,14.50
2022-10-31T04:59:15.276Z,14.60
2022-10-31T05:01:18.166Z,14.60
2022-10-31T05:03:21.472Z,14.60
2022-10-31T05:05:27.067Z,14.60
2022-10-31T05:07:29.946Z,14.60
2022-10-31T05:09:32.785Z,14.60
2022-10-31T05:11:35.608Z,14.60
2022-10-31T05:13:38.534Z,14.60
2022-10-31T05:15:42.706Z,14.40
2022-10-31T05:17:45.766Z,14.30
2022-10-31T05:19:48.615Z,14.20
2022-10-31T05:21:51.422Z,14.20
2022-10-31T05:23:54.270Z,14.30
2022-10-31T05:25:57.150Z,14.30
2022-10-31T05:28:00.366Z,14.30
2022-10-31T05:30:03.563Z,14.40
2022-10-31T05:32:07.751Z,14.40
2022-10-31T05:34:10.721Z,14.30
2022-10-31T05:36:13.588Z,14.20
2022-10-31T05:38:16.465Z,14.20
2022-10-31T05:40:20.757Z,14.30
2022-10-31T05:42:23.660Z,14.30
2022-10-31T05:44:26.517Z,14.30
2022-10-31T05:46:29.462Z,14.20
2022-10-31T05:48:33.720Z,14.20
2022-10-31T05:50:36.535Z,14.20
2022-10-31T05:52:39.459Z,14.20
2022-10-31T05:54:42.355Z,14.30
2022-10-31T05:56:45.237Z,14.30
2022-10-31T05:58:48.057Z,14.30
2022-10-31T06:00:50.934Z,14.20
2022-10-31T06:03:00.263Z,14.20
2022-10-31T06:05:05.085Z,14.20
2022-10-31T06:07:08.031Z,14.20
2022-10-31T06:09:10.893Z,14.20
2022-10-31T06:11:13.915Z,14.20
2022-10-31T06:13:16.818Z,14.20
2022-10-31T06:15:24.079Z,14.20
2022-10-31T06:17:27.676Z,14.20
2022-10-31T06:19:30.528Z,14.20
2022-10-31T06:21:34.720Z,14.10
2022-10-31T06:23:37.617Z,14.10
2022-10-31T06:25:40.540Z,14.20
2022-10-31T06:27:43.404Z,14.20
2022-10-31T06:29:47.364Z,14.20
2022-10-31T06:31:52.733Z,14.10
2022-10-31T06:33:55.705Z,14.10
2022-10-31T06:35:58.751Z,14.00
2022-10-31T06:38:03.551Z,14.00
2022-10-31T06:40:07.668Z,13.90
2022-10-31T06:42:10.472Z,13.80
2022-10-31T06:44:13.365Z,13.90
2022-10-31T06:46:16.237Z,13.90
2022-10-31T06:48:19.804Z,14.00
2022-10-31T06:50:23.329Z,14.20
2022-10-31T06:52:26.213Z,14.20
2022-10-31T06:54:30.497Z,14.30
2022-10-31T06:56:33.368Z,14.30
2022-10-31T06:58:36.249Z,14.30
2022-10-31T07:00:39.264Z,14.30
2022-10-31T07:02:42.165Z,14.40
2022-10-31T07:04:45.023Z,14.50
2022-10-31T07:06:51.755Z,14.50
2022-10-31T07:08:54.954Z,14.60
2022-10-31T07:10:59.675Z,14.60
2022-10-31T07:13:04.660Z,14.60
2022-10-31T07:15:08.691Z,14.70
2022-10-31T07:17:11.617Z,14.70
2022-10-31T07:19:14.516Z,14.70
2022-10-31T07:21:17.420Z,14.80
2022-10-31T07:23:20.554Z,14.80
2022-10-31T07:25:23.454Z,14.90
2022-10-31T07:27:27.641Z,15.00
2022-10-31T07:29:30.529Z,15.00
2022-10-31T07:31:33.372Z,15.10
2022-10-31T07:33:36.281Z,15.20
2022-10-31T07:35:39.202Z,15.20
2022-10-31T07:37:42.074Z,15.30
2022-10-31T07:39:44.997Z,15.40
2022-10-31T07:41:47.958Z,15.50
2022-10-31T07:45:59.908Z,15.60
2022-10-31T07:48:03.419Z,15.60
2022-10-31T07:50:07.369Z,15.70
2022-10-31T07:52:10.574Z,15.70
2022-10-31T07:54:13.935Z,15.80
2022-10-31T07:56:16.776Z,15.90
2022-10-31T07:58:19.995Z,15.90
2022-10-31T08:00:24.233Z,16.00
2022-10-31T08:02:27.761Z,16.10
2022-10-31T08:04:30.674Z,16.20
2022-10-31T08:06:35.319Z,16.30
2022-10-31T08:08:38.567Z,16.30
2022-10-31T08:10:41.648Z,16.40
2022-10-31T08:12:44.537Z,16.50
2022-10-31T08:14:47.418Z,16.50
2022-10-31T08:16:51.689Z,16.60
2022-10-31T08:18:56.716Z,16.60
2022-10-31T08:20:59.912Z,16.70
2022-10-31T08:23:04.962Z,16.70
2022-10-31T08:25:08.311Z,16.70
2022-10-31T08:27:11.747Z,16.70
2022-10-31T08:29:15.464Z,16.70
2022-10-31T08:31:18.446Z,16.80
2022-10-31T08:33:22.770Z,16.80
2022-10-31T08:35:25.634Z,16.80
2022-10-31T08:37:28.491Z,16.80
2022-10-31T08:39:31.475Z,16.80
2022-10-31T08:41:34.677Z,16.90
2022-10-31T08:43:37.579Z,16.90
2022-10-31T08:45:41.227Z,16.90
2022-10-31T08:47:44.189Z,17.00
2022-10-31T08:49:48.468Z,17.00
2022-10-31T08:51:51.382Z,17.10
2022-10-31T08:53:54.270Z,17.10
2022-10-31T08:55:57.964Z,17.20
2022-10-31T08:58:01.229Z,17.20
2022-10-31T09:00:05.344Z,17.20
2022-10-31T09:02:09.874Z,17.20
2022-10-31T09:04:12.858Z,17.20
2022-10-31T09:06:17.381Z,17.30
2022-10-31T09:08:20.428Z,17.30
2022-10-31T09:10:23.330Z,17.30
2022-10-31T09:12:26.605Z,17.30
2022-10-31T09:14:29.890Z,17.40
2022-10-31T09:16:32.762Z,17.40
2022-10-31T09:18:35.847Z,17.40
2022-10-31T09:20:40.205Z,17.40
2022-10-31T09:22:44.523Z,17.50
2022-10-31T09:24:47.385Z,17.60
2022-10-31T09:26:50.243Z,17.60
2022-10-31T09:28:53.125Z,17.70
2022-10-31T09:30:56.618Z,17.70
2022-10-31T09:33:00.563Z,17.90
2022-10-31T09:35:03.492Z,17.90
2022-10-31T09:37:06.780Z,18.00
2022-10-31T09:39:11.037Z,18.10
2022-10-31T09:41:24.052Z,18.20
2022-10-31T09:43:34.766Z,18.20
2022-10-31T09:45:44.242Z,18.30
2022-10-31T09:48:00.140Z,18.30
2022-10-31T09:50:16.466Z,18.40
2022-10-31T09:52:22.968Z,18.40
2022-10-31T09:54:32.049Z,18.60
2022-10-31T09:56:36.654Z,18.60
2022-10-31T09:58:45.141Z,18.70
2022-10-31T10:00:49.191Z,18.70
2022-10-31T10:03:00.177Z,18.70
2022-10-31T10:05:05.711Z,18.70
2022-10-31T10:07:19.746Z,18.70
2022-10-31T10:09:27.055Z,18.80
2022-10-31T10:11:42.761Z,18.80
2022-10-31T10:13:59.738Z,18.80
2022-10-31T10:16:18.146Z,18.80
2022-10-31T10:18:31.607Z,18.80
2022-10-31T10:20:39.996Z,18.80
2022-10-31T10:22:48.470Z,18.80
2022-10-31T10:25:03.858Z,18.90
2022-10-31T10:27:23.548Z,18.90
2022-10-31T10:29:37.342Z,18.90
2022-10-31T10:31:47.025Z,18.90
2022-10-31T10:34:00.162Z,19.00
2022-10-31T10:36:07.306Z,19.00
2022-10-31T10:38:19.422Z,19.00
2022-10-31T10:40:26.870Z,19.10
2022-10-31T10:42:54.419Z,19.10
2022-10-31T10:45:14.814Z,19.10
2022-10-31T10:47:35.113Z,19.10
2022-10-31T10:49:45.245Z,19.20
2022-10-31T10:52:02.195Z,19.20
2022-10-31T10:55:16.974Z,19.30
2022-10-31T10:57:40.830Z,19.30
2022-10-31T10:59:44.053Z,19.40
2022-10-31T11:01:47.551Z,19.50
2022-10-31T11:03:50.485Z,19.60
2022-10-31T11:05:59.843Z,19.60
2022-10-31T11:08:03.234Z,19.60
2022-10-31T11:10:14.118Z,19.70
2022-10-31T11:12:24.227Z,19.80
2022-10-31T11:14:32.478Z,19.80
2022-10-31T11:16:41.421Z,19.90
2022-10-31T11:18:47.383Z,19.90
2022-10-31T11:20:54.170Z,19.90
2022-10-31T11:23:06.349Z,20.10
2022-10-31T11:25:23.361Z,20.10
2022-10-31T11:27:28.389Z,20.20
2022-10-31T11:29:32.762Z,20.30
2022-10-31T11:31:37.564Z,20.40
2022-10-31T11:33:47.688Z,20.50
2022-10-31T11:35:53.589Z,20.50
2022-10-31T11:38:03.335Z,20.60
2022-10-31T11:40:09.148Z,20.60
2022-10-31T11:42:12.183Z,20.70
2022-10-31T11:44:19.897Z,20.70
2022-10-31T11:46:31.228Z,20.80
2022-10-31T11:48:34.141Z,20.90
2022-10-31T11:50:41.156Z,20.90
2022-10-31T11:52:44.396Z,20.90
2022-10-31T11:54:51.703Z,21.00
2022-10-31T11:56:54.656Z,21.00
2022-10-31T11:58:58.930Z,21.10
2022-10-31T12:01:02.201Z,21.20
2022-10-31T12:03:29.696Z,21.20
2022-10-31T12:05:33.967Z,21.30
2022-10-31T12:07:36.856Z,21.30
2022-10-31T12:09:41.902Z,21.30
2022-10-31T12:11:55.959Z,21.30
2022-10-31T12:14:14.017Z,21.30
2022-10-31T12:16:22.259Z,21.40
2022-10-31T12:18:39.276Z,21.50
2022-10-31T12:20:54.410Z,21.50
2022-10-31T12:23:05.657Z,21.60
2022-10-31T12:25:23.899Z,21.60
2022-10-31T12:27:36.761Z,21.70
2022-10-31T12:30:01.388Z,21.80
2022-10-31T12:32:19.856Z,21.90
2022-10-31T12:34:48.606Z,22.00
2022-10-31T12:37:01.545Z,22.10
2022-10-31T12:39:34.960Z,22.20
2022-10-31T12:41:48.131Z,22.30
2022-10-31T12:43:58.375Z,22.30
2022-10-31T12:46:02.481Z,22.30
2022-10-31T12:48:27.861Z,22.30
2022-10-31T12:50:55.412Z,22.30
2022-10-31T12:53:15.753Z,22.30
2022-10-31T12:55:34.078Z,22.30
2022-10-31T12:57:41.559Z,22.40
2022-10-31T12:59:48.191Z,22.20
2022-10-31T13:01:57.120Z,22.30
2022-10-31T13:04:05.017Z,22.40
2022-10-31T13:06:15.027Z,22.40
2022-10-31T13:08:21.611Z,22.40
2022-10-31T13:10:28.990Z,22.80
2022-10-31T13:12:37.538Z,23.00
2022-10-31T13:14:44.707Z,23.20
2022-10-31T13:16:49.848Z,23.30
2022-10-31T13:18:57.489Z,23.30
2022-10-31T13:21:04.540Z,23.40
2022-10-31T13:23:48.485Z,23.40
2022-10-31T13:25:49.902Z,23.40
2022-10-31T13:27:57.436Z,23.30
2022-10-31T13:30:04.482Z,23.30
2022-10-31T13:32:11.566Z,23.30
2022-10-31T13:34:24.813Z,23.30
2022-10-31T13:36:35.361Z,23.30
2022-10-31T13:38:46.284Z,23.20
2022-10-31T13:40:56.890Z,23.20
2022-10-31T13:43:04.956Z,23.10
2022-10-31T13:45:15.592Z,23.10
2022-10-31T13:47:27.425Z,23.00
2022-10-31T13:49:41.124Z,23.00
2022-10-31T13:51:43.946Z,22.90
2022-10-31T13:54:00.046Z,22.90
2022-10-31T13:56:12.669Z,22.80
2022-10-31T13:58:30.424Z,22.80
2022-10-31T14:00:35.942Z,22.80
2022-10-31T14:02:39.169Z,22.80
2022-10-31T14:04:49.967Z,22.70
2022-10-31T14:07:00.054Z,22.70
2022-10-31T14:09:04.634Z,22.50
2022-10-31T14:11:09.408Z,22.50
2022-10-31T14:13:19.506Z,22.50
2022-10-31T14:15:25.434Z,22.50
2022-10-31T14:17:33.838Z,22.30
2022-10-31T14:19:36.806Z,22.30
2022-10-31T14:21:42.471Z,22.30
2022-10-31T14:23:48.320Z,22.30
2022-10-31T14:25:55.043Z,22.30
2022-10-31T14:27:59.298Z,22.20
2022-10-31T14:30:16.712Z,22.10
2022-10-31T14:32:24.353Z,22.10
2022-10-31T14:34:31.949Z,22.00
2022-10-31T14:36:44.109Z,22.00
2022-10-31T14:38:57.144Z,22.00
2022-10-31T14:41:25.285Z,22.00
2022-10-31T14:43:47.282Z,21.90
2022-10-31T14:45:59.959Z,21.80
2022-10-31T14:48:15.751Z,21.70
2022-10-31T14:50:47.715Z,21.70
2022-10-31T14:52:55.433Z,21.70
2022-10-31T14:55:02.916Z,21.70
2022-10-31T14:57:17.036Z,21.60
2022-10-31T14:59:24.687Z,21.50
2022-10-31T15:01:30.675Z,21.50
2022-10-31T15:03:37.167Z,21.40
2022-10-31T15:05:44.668Z,21.40
2022-10-31T15:07:52.666Z,21.40
2022-10-31T15:09:59.278Z,21.30
2022-10-31T15:12:02.733Z,21.20
2022-10-31T15:14:26.185Z,21.20
2022-10-31T15:18:49.717Z,21.00
2022-10-31T15:20:55.278Z,21.00
2022-10-31T15:23:00.133Z,21.00
2022-10-31T15:25:04.165Z,20.80
2022-10-31T15:27:12.641Z,20.80
2022-10-31T15:29:22.320Z,20.80
2022-10-31T15:31:25.449Z,20.80
2022-10-31T15:33:38.642Z,20.70
2022-10-31T15:35:42.950Z,20.70
2022-10-31T15:37:47.068Z,20.70
2022-10-31T15:39:52.567Z,20.70
2022-10-31T15:41:57.362Z,20.60
2022-10-31T15:44:05.253Z,20.70
2022-10-31T15:46:11.458Z,20.70
2022-10-31T15:48:19.321Z,20.60
2022-10-31T15:50:28.707Z,20.60
2022-10-31T15:52:36.634Z,20.50
2022-10-31T15:54:48.068Z,20.50
2022-10-31T15:56:51.374Z,20.40
2022-10-31T15:58:56.292Z,20.40
2022-10-31T16:01:00.807Z,20.30
2022-10-31T16:03:08.194Z,20.30
2022-10-31T16:05:19.534Z,20.30
2022-10-31T16:07:23.867Z,20.20
2022-10-31T16:09:27.251Z,20.20
2022-10-31T16:11:39.505Z,20.20
2022-10-31T16:13:54.161Z,20.20
2022-10-31T16:16:21.636Z,20.20
2022-10-31T16:18:25.810Z,20.10
2022-10-31T16:20:33.221Z,20.10
2022-10-31T16:22:39.942Z,20.10
2022-10-31T16:24:48.752Z,20.00
2022-10-31T16:26:54.068Z,19.90
2022-10-31T16:29:04.900Z,19.90
2022-10-31T16:31:16.620Z,19.80
2022-10-31T16:33:28.650Z,19.70
2022-10-31T16:35:35.592Z,19.60
2022-10-31T16:37:39.845Z,19.60
2022-10-31T16:39:42.711Z,19.60
2022-10-31T16:41:47.352Z,19.60
2022-10-31T16:43:52.554Z,19.60
2022-10-31T16:45:56.151Z,19.60
2022-10-31T16:48:05.561Z,19.60
2022-10-31T16:50:15.693Z,19.60
2022-10-31T16:52:19.190Z,19.50
2022-10-31T16:54:22.387Z,19.50
2022-10-31T16:56:29.567Z,19.50
2022-10-31T16:58:34.615Z,19.50
2022-10-31T17:00:38.126Z,19.50
2022-10-31T17:02:41.116Z,19.40
2022-10-31T17:04:44.576Z,19.40
2022-10-31T17:06:49.077Z,19.40
2022-10-31T17:08:52.026Z,19.40
2022-10-31T17:10:57.352Z,19.30
2022-10-31T17:13:00.996Z,19.30
2022-10-31T17:15:05.620Z,19.40
2022-10-31T17:17:10.145Z,19.40
2022-10-31T17:19:13.245Z,19.30
2022-10-31T17:21:20.471Z,19.20
2022-10-31T17:23:24.843Z,19.20
2022-10-31T17:25:31.794Z,19.20
2022-10-31T17:27:35.048Z,19.10
2022-10-31T17:29:37.890Z,19.10
2022-10-31T17:31:40.792Z,19.10
2022-10-31T17:33:44.215Z,19.10
2022-10-31T17:35:47.080Z,19.10
2022-10-31T17:37:50.122Z,19.10
2022-10-31T17:39:54.344Z,19.10
2022-10-31T17:41:57.275Z,19.20
2022-10-31T17:44:00.829Z,19.10
2022-10-31T17:46:04.096Z,19.20
2022-10-31T17:48:07.719Z,19.00
2022-10-31T17:50:11.483Z,19.00
2022-10-31T17:52:15.042Z,19.00
2022-10-31T17:54:22.626Z,19.10
2022-10-31T17:56:27.092Z,19.10
2022-10-31T17:58:30.591Z,19.20
2022-10-31T18:00:33.749Z,19.20
2022-10-31T18:02:37.886Z,19.20
2022-10-31T18:04:41.556Z,19.20
2022-10-31T18:06:44.453Z,19.20
2022-10-31T18:08:47.354Z,19.10
2022-10-31T18:10:50.301Z,19.20
2022-10-31T18:12:54.577Z,19.10
2022-10-31T18:14:57.412Z,19.00
2022-10-31T18:17:00.521Z,19.00
2022-10-31T18:19:05.427Z,19.00
2022-10-31T18:21:08.582Z,18.90
2022-10-31T18:23:12.612Z,18.90
2022-10-31T18:25:15.500Z,18.90
2022-10-31T18:27:18.344Z,18.90
2022-10-31T18:29:22.599Z,18.90
2022-10-31T18:31:26.124Z,19.00
2022-10-31T18:33:29.362Z,19.00
2022-10-31T18:35:32.196Z,18.90
2022-10-31T18:37:35.089Z,18.90
2022-10-31T18:39:37.974Z,18.90
2022-10-31T18:41:41.918Z,18.80
2022-10-31T18:43:45.035Z,18.80
2022-10-31T18:45:52.294Z,18.80
2022-10-31T18:47:58.266Z,18.80
2022-10-31T18:50:01.264Z,18.70
2022-10-31T18:52:04.769Z,18.70
2022-10-31T18:54:07.915Z,18.70
2022-10-31T18:56:12.329Z,18.70
2022-10-31T18:58:15.231Z,18.70
2022-10-31T19:00:18.855Z,18.60
2022-10-31T19:02:23.115Z,18.60
2022-10-31T19:04:26.085Z,18.60
2022-10-31T19:06:30.852Z,18.60
2022-10-31T19:08:34.179Z,18.60
2022-10-31T19:10:37.794Z,18.60
2022-10-31T19:12:40.592Z,18.60
2022-10-31T19:14:43.428Z,18.60
2022-10-31T19:16:46.319Z,18.60
2022-10-31T19:18:54.097Z,18.60
2022-10-31T19:20:57.138Z,18.50
2022-10-31T19:23:00.440Z,18.40
2022-10-31T19:25:07.609Z,18.40
2022-10-31T19:27:13.233Z,18.30
2022-10-31T19:29:16.448Z,18.30
2022-10-31T19:31:19.920Z,18.30
2022-10-31T19:33:22.841Z,18.30
2022-10-31T19:35:28.266Z,18.20
2022-10-31T19:37:31.160Z,18.20
2022-10-31T19:39:34.290Z,18.20
2022-10-31T19:41:37.521Z,18.20
2022-10-31T19:43:40.449Z,18.30
2022-10-31T19:45:55.269Z,18.30
2022-10-31T19:47:58.314Z,18.40
2022-10-31T19:50:01.454Z,18.40
2022-10-31T19:52:06.136Z,18.40
2022-10-31T19:54:09.162Z,18.40
2022-10-31T19:56:13.697Z,18.30
2022-10-31T19:58:16.880Z,18.30
2022-10-31T20:00:20.012Z,18.30
2022-10-31T20:02:22.897Z,18.40
2022-10-31T20:04:26.170Z,18.30
2022-10-31T20:06:31.549Z,18.30
2022-10-31T20:08:39.444Z,18.30
2022-10-31T20:10:42.673Z,18.30
2022-10-31T20:12:45.642Z,18.30
2022-10-31T20:14:51.228Z,18.30
2022-10-31T20:16:55.375Z,18.20
2022-10-31T20:18:59.550Z,18.40
2022-10-31T20:21:04.966Z,18.40
2022-10-31T20:23:08.211Z,18.40
2022-10-31T20:25:12.561Z,18.40
2022-10-31T20:27:15.414Z,18.40
2022-10-31T20:29:19.435Z,18.40
2022-10-31T20:31:24.092Z,18.50
2022-10-31T20:33:27.287Z,18.50
2022-10-31T20:35:30.104Z,18.60
2022-10-31T20:37:33.054Z,18.70
2022-10-31T20:39:36.676Z,18.60
2022-10-31T20:41:41.092Z,18.60
2022-10-31T20:43:44.872Z,18.60
2022-10-31T20:45:48.433Z,18.70
2022-10-31T20:47:51.593Z,18.70
2022-10-31T20:49:54.766Z,18.70
2022-10-31T20:51:57.913Z,18.70
2022-10-31T20:54:01.952Z,18.70
2022-10-31T20:56:07.501Z,18.70
2022-10-31T20:58:12.101Z,18.70
2022-10-31T21:00:15.460Z,18.70
2022-10-31T21:02:18.657Z,18.60
2022-10-31T21:04:21.742Z,18.60
2022-10-31T21:06:25.213Z,18.60
2022-10-31T21:08:30.138Z,18.60
2022-10-31T21:10:33.045Z,18.60
2022-10-31T21:12:36.143Z,18.50
2022-10-31T21:14:40.446Z,18.50
2022-10-31T21:16:43.305Z,18.40
2022-10-31T21:18:47.406Z,18.30
2022-10-31T21:20:50.211Z,18.30
2022-10-31T21:22:54.547Z,18.30
2022-10-31T21:24:57.569Z,18.30
2022-10-31T21:27:02.116Z,18.20
2022-10-31T21:29:07.646Z,18.10
2022-10-31T21:31:14.342Z,18.10
2022-10-31T21:33:17.217Z,18.10
2022-10-31T21:35:20.102Z,18.00
2022-10-31T21:37:22.964Z,18.00
2022-10-31T21:39:25.849Z,18.00
2022-10-31T21:41:28.856Z,17.90
2022-10-31T21:43:32.257Z,17.90
2022-10-31T21:45:35.168Z,17.90
2022-10-31T21:47:39.418Z,17.90
2022-10-31T21:49:42.505Z,17.90
2022-10-31T21:51:46.842Z,17.80
2022-10-31T21:54:07.653Z,17.80
2022-10-31T21:56:10.529Z,17.70
2022-10-31T21:58:13.610Z,17.60
2022-10-31T22:00:16.881Z,17.60
2022-10-31T22:02:19.836Z,17.60
2022-10-31T22:04:24.440Z,17.60
2022-10-31T22:06:29.962Z,17.60
2022-10-31T22:08:33.235Z,17.60
2022-10-31T22:10:36.115Z,17.60
2022-10-31T22:12:39.003Z,17.50
2022-10-31T22:16:46.043Z,17.60
2022-10-31T22:18:53.033Z,17.60
2022-10-31T22:21:02.273Z,17.50
2022-10-31T22:23:07.628Z,17.60
2022-10-31T22:25:10.980Z,17.60
2022-10-31T22:27:13.842Z,17.60
2022-10-31T22:29:18.421Z,17.60
2022-10-31T22:31:23.384Z,17.50
2022-10-31T22:33:26.886Z,17.50
2022-10-31T22:35:29.769Z,17.60
2022-10-31T22:37:34.223Z,17.50
2022-10-31T22:39:37.093Z,17.60
2022-10-31T22:41:40.120Z,17.60
2022-10-31T22:43:43.122Z,17.60
2022-10-31T22:45:55.296Z,17.60
2022-10-31T22:47:58.407Z,17.60
2022-10-31T22:50:01.472Z,17.50
2022-10-31T22:52:05.463Z,17.50
2022-10-31T22:54:13.856Z,17.50
2022-10-31T22:56:18.668Z,17.50
2022-10-31T22:58:21.675Z,17.60
2022-10-31T23:00:24.652Z,17.60
2022-10-31T23:02:28.868Z,17.50
2022-10-31T23:04:31.775Z,17.40
2022-10-31T23:06:34.713Z,17.50
2022-10-31T23:08:39.145Z,17.40
2022-10-31T23:10:44.231Z,17.40
2022-10-31T23:13:04.557Z,17.50
2022-10-31T23:15:08.309Z,17.40
2022-10-31T23:17:17.510Z,17.40
2022-10-31T23:19:22.552Z,17.30
2022-10-31T23:21:43.226Z,17.30
2022-10-31T23:23:46.085Z,17.20
2022-10-31T23:26:07.648Z,17.20
2022-10-31T23:28:10.532Z,17.20
2022-10-31T23:30:13.645Z,17.20
2022-10-31T23:32:19.934Z,17.20
2022-10-31T23:34:23.051Z,17.10
2022-10-31T23:36:25.980Z,17.10
2022-10-31T23:38:29.059Z,17.10
2022-10-31T23:40:31.895Z,16.80
2022-10-31T23:42:36.188Z,16.90
2022-10-31T23:44:39.064Z,17.00
2022-10-31T23:46:41.948Z,16.90
2022-10-31T23:48:47.971Z,17.00
2022-10-31T23:50:50.866Z,17.00
2022-10-31T23:52:53.741Z,17.00
2022-10-31T23:54:56.664Z,17.00
2022-10-31T23:56:59.612Z,17.10
2022-10-31T23:59:04.517Z,17.10
